Coram, New York
Current Conditions -  °F | °C
As of 12:56 AM on Saturday 20 Dec 2014 (Local Time) from KISP Reporting Station
Broken Clouds Broken Clouds  
Wind Chill: 25°   Ceiling: 3400
Heat Index: 31°   Visibility: 10mi
Dew Point: 22°   Wind: 6mph
Humidity: 69%   Direction: 360°N
Pressure: 30.17"   Gusts: NA
Location:  40.87°N, 73°W
Report Text: KISP 200556Z AUTO 36005KT 10SM SCT025 BKN034 M01/M06 A3017 RMK AO2 SLP216 T10061056 10022 21017 51012
Loading
Personal Weather Stations






























Interactive Weather Map New forecast layout! Learn more

10-Day Weather Forecast

Advertisements
Track Severe Weather on mobile